Time;durP1;ratioP1;P1;durP2;ratioP2;P2;SDS_P1;SDS_P2;PMS_P1;PMS_P2;Temp;Humidity;BMP_temperature;BMP_pressure;BME280_temperature;BME280_humidity;BME280_pressure;Samples;Min_cycle;Max_cycle;Signal;HPM_P1;HPM_P2
2023/10/30 00:00:46;;;;;;;5.20;1.75;;;11.00;99.90;;;;;;5008406;28;20381;-79
2023/10/30 00:03:14;;;;;;;7.57;1.48;;;11.00;99.90;;;;;;5009360;28;20045;-80
2023/10/30 00:05:39;;;;;;;;;;;11.00;99.90;;;;;;4993239;28;20050;-80
2023/10/30 00:08:06;;;;;;;5.68;1.63;;;10.90;99.90;;;;;;4998393;28;19921;-79
2023/10/30 00:10:33;;;;;;;6.70;1.80;;;10.90;99.90;;;;;;5019201;28;20042;-79
2023/10/30 00:12:59;;;;;;;;;;;10.90;99.90;;;;;;5010511;28;20068;-79
2023/10/30 00:15:25;;;;;;;5.80;1.40;;;10.90;99.90;;;;;;4996361;28;20359;-79
2023/10/30 00:17:51;;;;;;;6.55;1.65;;;10.90;99.90;;;;;;4997873;28;20539;-80
2023/10/30 00:20:17;;;;;;;7.38;1.77;;;10.90;99.90;;;;;;4998621;28;20054;-79
2023/10/30 00:22:43;;;;;;;6.93;2.00;;;10.90;99.90;;;;;;4996921;28;20058;-79
2023/10/30 00:25:09;;;;;;;6.20;1.50;;;10.90;99.90;;;;;;4998605;28;20064;-79
2023/10/30 00:27:35;;;;;;;5.82;1.60;;;10.90;99.90;;;;;;4998221;28;20528;-79
2023/10/30 00:30:00;;;;;;;6.53;2.13;;;10.90;99.90;;;;;;5009197;28;20459;-79
2023/10/30 00:32:26;;;;;;;7.88;2.15;;;10.90;99.90;;;;;;4996671;28;20042;-79
2023/10/30 00:34:52;;;;;;;7.43;1.60;;;10.90;99.90;;;;;;4994345;28;20121;-79
2023/10/30 00:37:17;;;;;;;6.68;1.77;;;10.90;99.90;;;;;;5002203;28;20126;-79
2023/10/30 00:39:43;;;;;;;6.82;1.63;;;10.90;99.90;;;;;;5009397;28;20046;-80
2023/10/30 00:42:09;;;;;;;7.85;2.00;;;10.90;99.90;;;;;;5005780;28;20050;-77
2023/10/30 00:44:37;;;;;;;4.95;1.58;;;10.90;99.90;;;;;;5009021;28;20041;-78
2023/10/30 00:47:04;;;;;;;6.45;1.92;;;10.90;99.90;;;;;;4994459;28;20051;-77
2023/10/30 00:49:31;;;;;;;6.63;1.77;;;10.90;99.90;;;;;;4992172;28;20050;-78
2023/10/30 00:51:56;;;;;;;7.10;1.80;;;10.90;99.90;;;;;;5003572;28;20042;-78
2023/10/30 00:54:22;;;;;;;5.82;1.73;;;10.80;99.90;;;;;;5005673;28;20327;-78
2023/10/30 00:56:48;;;;;;;7.88;1.98;;;10.90;99.90;;;;;;4998639;28;20050;-78
2023/10/30 00:59:13;;;;;;;5.53;1.60;;;10.90;99.90;;;;;;5036522;28;20468;-78
2023/10/30 01:01:39;;;;;;;6.25;2.05;;;10.90;99.90;;;;;;4999216;28;20155;-77
2023/10/30 01:04:05;;;;;;;8.32;1.77;;;10.90;99.90;;;;;;5014221;28;20045;-78
2023/10/30 01:06:31;;;;;;;6.78;2.13;;;10.90;99.90;;;;;;5001005;28;20065;-78
2023/10/30 01:08:56;;;;;;;8.05;2.00;;;10.90;99.90;;;;;;4984744;28;20079;-77
2023/10/30 01:11:22;;;;;;;9.07;2.70;;;10.80;99.90;;;;;;5006885;28;20049;-77
2023/10/30 01:13:48;;;;;;;7.22;2.00;;;10.80;99.90;;;;;;4999872;28;20050;-80
2023/10/30 01:16:13;;;;;;;6.63;2.08;;;10.80;99.90;;;;;;5001243;28;20036;-80
2023/10/30 01:18:39;;;;;;;9.50;2.33;;;10.80;99.90;;;;;;5007144;28;20145;-80
2023/10/30 01:21:15;;;;;;;7.13;1.95;;;10.80;99.90;;;;;;5006275;28;20042;-80
2023/10/30 01:23:40;;;;;;;8.20;2.13;;;10.80;99.90;;;;;;5010195;28;20057;-80
2023/10/30 01:26:06;;;;;;;8.40;1.95;;;10.80;99.90;;;;;;5009257;28;20039;-80
2023/10/30 01:28:32;;;;;;;9.30;2.22;;;10.80;99.90;;;;;;4991251;28;20053;-80
2023/10/30 01:30:57;;;;;;;10.07;2.47;;;10.80;99.90;;;;;;5002377;28;20042;-79
2023/10/30 01:33:24;;;;;;;6.03;2.03;;;10.80;99.90;;;;;;5006017;28;20034;-80
2023/10/30 01:35:50;;;;;;;8.07;1.80;;;10.80;99.90;;;;;;4996602;28;20065;-80
2023/10/30 01:38:15;;;;;;;12.82;2.42;;;10.70;99.90;;;;;;5004118;28;20404;-80
2023/10/30 01:40:49;;;;;;;9.30;2.45;;;10.70;99.90;;;;;;4990956;28;20489;-80
2023/10/30 01:43:14;;;;;;;10.20;2.40;;;10.70;99.90;;;;;;5004816;28;20106;-79
2023/10/30 01:45:40;;;;;;;8.55;2.08;;;10.70;99.90;;;;;;4993521;28;20042;-80
2023/10/30 01:48:06;;;;;;;10.45;3.10;;;10.70;99.90;;;;;;5004860;28;20054;-79
2023/10/30 01:50:32;;;;;;;10.80;2.40;;;10.70;99.90;;;;;;5006115;28;20481;-80
2023/10/30 01:52:58;;;;;;;9.18;1.70;;;10.80;99.90;;;;;;5000048;28;20077;-79
2023/10/30 01:55:24;;;;;;;10.65;2.30;;;10.80;99.90;;;;;;5004875;28;20489;-80
2023/10/30 01:57:50;;;;;;;10.95;2.35;;;10.80;99.90;;;;;;5003305;28;20121;-80
2023/10/30 02:00:16;;;;;;;5.90;2.50;;;10.80;99.90;;;;;;5004853;28;20102;-75
2023/10/30 02:02:43;;;;;;;8.40;1.90;;;10.80;99.90;;;;;;4997361;28;20411;-75
2023/10/30 02:05:09;;;;;;;7.43;1.77;;;10.80;99.90;;;;;;5020010;28;20050;-75
2023/10/30 02:07:37;;;;;;;7.60;2.15;;;10.90;99.90;;;;;;4995787;28;20084;-75
2023/10/30 02:10:04;;;;;;;5.65;1.83;;;10.90;99.90;;;;;;4991090;28;20045;-76
2023/10/30 02:12:30;;;;;;;10.70;2.20;;;10.90;99.90;;;;;;4989753;28;20074;-76
2023/10/30 02:14:56;;;;;;;11.20;2.42;;;11.00;99.90;;;;;;4992555;28;20088;-75
2023/10/30 02:17:21;;;;;;;9.30;2.05;;;10.90;99.90;;;;;;4999859;28;20063;-76
2023/10/30 02:19:47;;;;;;;10.80;2.55;;;10.90;99.90;;;;;;4987622;28;20038;-75
2023/10/30 02:22:12;;;;;;;9.45;2.45;;;11.00;99.90;;;;;;5102710;27;20057;-75
2023/10/30 02:24:38;;;;;;;12.50;3.00;;;11.00;99.90;;;;;;4998317;28;20057;-75
2023/10/30 02:27:04;;;;;;;10.50;2.17;;;11.00;99.90;;;;;;5010157;28;20480;-76
2023/10/30 02:29:30;;;;;;;11.80;3.15;;;11.00;99.90;;;;;;5000656;28;20224;-76
2023/10/30 02:31:55;;;;;;;15.13;2.20;;;11.00;99.90;;;;;;5002618;28;20133;-75
2023/10/30 02:34:21;;;;;;;9.48;2.40;;;11.00;99.90;;;;;;4991492;28;20050;-75
2023/10/30 02:36:47;;;;;;;13.18;2.50;;;11.00;99.90;;;;;;4992942;28;20116;-75
2023/10/30 02:39:12;;;;;;;10.55;2.33;;;11.00;99.90;;;;;;5089670;27;20046;-75
2023/10/30 02:41:38;;;;;;;8.60;1.75;;;11.00;99.90;;;;;;4992551;28;20050;-75
2023/10/30 02:44:04;;;;;;;7.35;1.92;;;11.00;99.90;;;;;;4996901;28;20034;-76
2023/10/30 02:46:29;;;;;;;12.88;2.72;;;11.00;99.90;;;;;;5024769;28;20724;-75
2023/10/30 02:48:55;;;;;;;9.48;2.10;;;11.00;99.90;;;;;;4996970;28;20064;-75
2023/10/30 02:51:21;;;;;;;8.77;2.72;;;11.10;99.90;;;;;;5006838;28;20397;-75
2023/10/30 02:53:47;;;;;;;10.98;2.35;;;11.10;99.90;;;;;;4997133;28;20046;-76
2023/10/30 02:56:13;;;;;;;10.52;2.60;;;11.10;99.90;;;;;;4994729;28;20041;-76
2023/10/30 02:58:38;;;;;;;9.40;2.53;;;11.20;99.90;;;;;;4998608;28;20449;-75
2023/10/30 03:01:04;;;;;;;13.82;2.83;;;11.20;99.90;;;;;;5004127;28;20141;-75
2023/10/30 03:03:29;;;;;;;9.50;1.92;;;11.20;99.90;;;;;;5008378;28;20052;-75
2023/10/30 03:05:55;;;;;;;9.60;2.17;;;11.20;99.90;;;;;;5003979;28;20058;-76
2023/10/30 03:08:21;;;;;;;8.65;2.42;;;11.10;99.90;;;;;;5014407;28;20094;-75
2023/10/30 03:10:47;;;;;;;10.98;2.83;;;11.10;99.90;;;;;;5005229;28;20508;-76
2023/10/30 03:13:13;;;;;;;9.13;2.13;;;11.10;99.90;;;;;;5009146;28;20056;-76
2023/10/30 03:15:40;;;;;;;11.52;2.20;;;11.10;99.90;;;;;;4991454;28;20046;-76
2023/10/30 03:18:06;;;;;;;13.95;2.03;;;11.10;99.90;;;;;;5004692;28;20100;-75
2023/10/30 03:20:31;;;;;;;12.85;2.20;;;11.10;99.90;;;;;;5002534;28;20458;-75
2023/10/30 03:22:57;;;;;;;9.65;2.40;;;11.10;99.90;;;;;;4998060;28;20144;-75
2023/10/30 03:25:23;;;;;;;9.75;2.30;;;11.10;99.90;;;;;;5006205;28;20443;-75
2023/10/30 03:27:48;;;;;;;10.55;2.45;;;11.10;99.90;;;;;;5000566;28;20085;-75
2023/10/30 03:30:15;;;;;;;9.77;2.60;;;11.10;99.90;;;;;;4992358;28;20049;-75
2023/10/30 03:32:41;;;;;;;10.20;2.40;;;11.10;99.90;;;;;;5009988;28;20512;-75
2023/10/30 03:35:07;;;;;;;9.63;2.15;;;11.10;99.90;;;;;;4993288;28;20133;-75
2023/10/30 03:37:33;;;;;;;8.73;2.10;;;11.10;99.90;;;;;;5005605;28;20050;-75
2023/10/30 03:39:58;;;;;;;7.85;1.85;;;11.00;99.90;;;;;;5002458;28;20034;-75
2023/10/30 03:42:24;;;;;;;11.98;2.85;;;11.10;99.90;;;;;;4999028;28;20046;-75
2023/10/30 03:44:50;;;;;;;10.02;2.28;;;11.00;99.90;;;;;;5014264;28;20102;-75
2023/10/30 03:47:15;;;;;;;12.27;2.15;;;11.00;99.90;;;;;;4997402;28;20046;-75
2023/10/30 03:49:41;;;;;;;9.73;2.33;;;11.00;99.90;;;;;;4991307;28;20097;-75
2023/10/30 03:52:06;;;;;;;10.10;2.40;;;11.00;99.90;;;;;;4992770;28;20158;-75
2023/10/30 03:54:32;;;;;;;11.98;2.22;;;11.00;99.90;;;;;;4986341;28;20054;-75
2023/10/30 03:56:58;;;;;;;10.15;2.20;;;11.00;99.90;;;;;;4999342;28;20069;-75
2023/10/30 03:59:23;;;;;;;11.02;2.22;;;11.00;99.90;;;;;;5010335;28;20037;-75
2023/10/30 04:01:49;;;;;;;13.75;2.30;;;11.00;99.90;;;;;;5092407;27;20326;-75
2023/10/30 04:04:15;;;;;;;11.73;2.50;;;11.00;99.90;;;;;;4999603;28;20082;-75
2023/10/30 04:06:40;;;;;;;11.00;2.67;;;11.00;99.90;;;;;;5003809;28;20042;-75
2023/10/30 04:09:06;;;;;;;7.95;2.30;;;10.90;99.90;;;;;;4988156;28;20260;-75
2023/10/30 04:11:32;;;;;;;12.38;2.83;;;10.90;99.90;;;;;;4990195;28;20138;-75
2023/10/30 04:13:59;;;;;;;11.82;2.67;;;10.90;99.90;;;;;;5008182;28;20045;-75
2023/10/30 04:16:24;;;;;;;10.20;2.33;;;10.90;99.90;;;;;;4996280;28;20065;-76
2023/10/30 04:18:50;;;;;;;11.63;2.65;;;10.90;99.90;;;;;;4995566;28;20472;-75
2023/10/30 04:21:15;;;;;;;14.35;2.60;;;10.90;99.90;;;;;;4991981;28;20042;-76
2023/10/30 04:23:44;;;;;;;12.23;2.10;;;10.80;99.90;;;;;;4998384;28;20076;-76
2023/10/30 04:26:10;;;;;;;11.50;2.10;;;10.80;99.90;;;;;;4987294;28;20393;-75
2023/10/30 04:28:36;;;;;;;12.25;2.80;;;10.80;99.90;;;;;;5093670;27;20039;-76
2023/10/30 04:31:01;;;;;;;13.23;2.17;;;10.90;99.90;;;;;;4992049;28;20626;-76
2023/10/30 04:33:27;;;;;;;13.63;3.10;;;10.80;99.90;;;;;;4992266;28;20050;-76
2023/10/30 04:35:53;;;;;;;14.57;2.58;;;10.80;99.90;;;;;;4991942;28;20030;-75
2023/10/30 04:38:21;;;;;;;9.70;2.40;;;10.80;99.90;;;;;;5014799;28;20159;-75
2023/10/30 04:40:46;;;;;;;11.20;2.38;;;10.80;99.90;;;;;;4987163;28;20121;-75
2023/10/30 04:43:12;;;;;;;12.88;2.50;;;10.80;99.90;;;;;;4998925;28;20517;-75
2023/10/30 04:45:37;;;;;;;13.68;2.70;;;10.80;99.90;;;;;;4997263;28;20464;-75
2023/10/30 04:48:03;;;;;;;11.63;2.63;;;10.80;99.90;;;;;;4989445;28;20050;-76
2023/10/30 04:50:29;;;;;;;15.30;3.05;;;10.80;99.90;;;;;;4997804;28;20050;-80
2023/10/30 04:52:55;;;;;;;9.93;1.95;;;10.70;99.90;;;;;;5012015;28;20030;-80
2023/10/30 04:55:20;;;;;;;10.38;2.22;;;10.80;99.90;;;;;;4995890;28;20124;-80
2023/10/30 04:57:46;;;;;;;11.60;2.70;;;10.70;99.90;;;;;;5007460;28;20387;-80
2023/10/30 05:00:12;;;;;;;11.23;2.65;;;10.70;99.90;;;;;;4994559;28;20054;-80
2023/10/30 05:02:38;;;;;;;13.48;2.00;;;10.70;99.90;;;;;;4989084;28;20095;-79
2023/10/30 05:05:04;;;;;;;11.63;2.55;;;10.70;99.90;;;;;;5021310;28;20034;-80
2023/10/30 05:07:29;;;;;;;10.52;2.03;;;10.70;99.90;;;;;;5021407;28;20076;-80
2023/10/30 05:09:55;;;;;;;11.90;2.55;;;10.70;99.90;;;;;;5009238;28;20041;-80
2023/10/30 05:12:21;;;;;;;13.93;2.40;;;10.70;99.90;;;;;;5007898;28;20485;-80
2023/10/30 05:14:46;;;;;;;11.40;2.40;;;10.70;99.90;;;;;;5005775;28;20073;-80
2023/10/30 05:17:13;;;;;;;11.00;2.35;;;10.60;99.90;;;;;;5005843;28;20053;-80
2023/10/30 05:19:38;;;;;;;8.35;2.03;;;10.60;99.90;;;;;;4997372;28;20046;-80
2023/10/30 05:22:05;;;;;;;13.02;2.63;;;10.60;99.90;;;;;;4993308;28;20057;-80
2023/10/30 05:24:31;;;;;;;11.02;2.25;;;10.60;99.90;;;;;;5004963;28;20071;-80
2023/10/30 05:26:56;;;;;;;8.77;2.08;;;10.60;99.90;;;;;;5000325;28;20458;-80
2023/10/30 05:29:22;;;;;;;10.05;2.47;;;10.60;99.90;;;;;;5002404;28;21545;-80
2023/10/30 05:31:48;;;;;;;10.63;2.30;;;10.60;99.90;;;;;;5001633;28;20073;-80
2023/10/30 05:34:13;;;;;;;11.23;2.42;;;10.60;99.90;;;;;;5005955;28;20097;-80
2023/10/30 05:36:39;;;;;;;15.15;2.35;;;10.50;99.90;;;;;;5001836;28;20407;-80
2023/10/30 05:39:05;;;;;;;13.50;2.58;;;10.60;99.90;;;;;;5001757;28;20050;-80
2023/10/30 05:41:31;;;;;;;8.55;2.17;;;10.50;99.90;;;;;;5019927;28;20449;-80
2023/10/30 05:43:57;;;;;;;15.82;2.45;;;10.50;99.90;;;;;;4996771;28;20053;-79
2023/10/30 05:46:22;;;;;;;13.40;3.22;;;10.50;99.90;;;;;;5005598;28;20052;-78
2023/10/30 05:48:48;;;;;;;14.43;2.53;;;10.50;99.90;;;;;;5007931;28;20109;-77
2023/10/30 05:51:14;;;;;;;9.05;2.20;;;10.60;99.90;;;;;;4996772;28;20057;-78
2023/10/30 05:53:41;;;;;;;14.75;2.22;;;10.60;99.90;;;;;;4997785;28;20042;-78
2023/10/30 05:56:06;;;;;;;11.57;2.22;;;10.50;99.90;;;;;;4994072;28;20401;-78
2023/10/30 05:58:32;;;;;;;9.98;2.03;;;10.50;99.90;;;;;;4993381;28;20509;-78
2023/10/30 06:00:58;;;;;;;10.38;2.35;;;10.50;99.90;;;;;;4999985;28;20095;-78
2023/10/30 06:03:23;;;;;;;10.82;2.45;;;10.50;99.90;;;;;;5003886;28;20034;-78
2023/10/30 06:05:49;;;;;;;14.07;2.88;;;10.50;99.90;;;;;;5096695;27;20093;-78
2023/10/30 06:08:15;;;;;;;14.75;2.65;;;10.50;99.90;;;;;;4991747;28;20121;-80
2023/10/30 06:10:40;;;;;;;11.18;2.25;;;10.50;99.90;;;;;;4997003;28;20489;-80
2023/10/30 06:13:07;;;;;;;9.27;2.00;;;10.50;99.90;;;;;;5000059;28;20853;-80
2023/10/30 06:15:33;;;;;;;12.80;2.40;;;10.50;99.90;;;;;;4999186;28;20042;-80
2023/10/30 06:17:59;;;;;;;12.48;2.33;;;10.60;99.90;;;;;;4999803;28;20041;-80
2023/10/30 06:20:25;;;;;;;12.80;2.63;;;10.50;99.90;;;;;;5011402;28;20129;-78
2023/10/30 06:22:51;;;;;;;11.45;2.33;;;10.60;99.90;;;;;;5000907;28;20099;-78
2023/10/30 06:25:17;;;;;;;10.70;2.65;;;10.60;99.90;;;;;;4990093;28;20042;-78
2023/10/30 06:27:43;;;;;;;11.23;2.60;;;10.60;99.90;;;;;;4996814;28;20049;-76
2023/10/30 06:30:12;;;;;;;9.90;2.42;;;10.60;99.90;;;;;;4988123;28;20554;-77
2023/10/30 06:32:38;;;;;;;10.98;2.03;;;10.60;99.90;;;;;;4987385;28;20645;-79
2023/10/30 06:35:06;;;;;;;11.23;2.47;;;10.60;99.90;;;;;;5005736;28;20049;-79
2023/10/30 06:37:31;;;;;;;11.27;2.20;;;10.60;99.90;;;;;;5002680;28;20065;-79
2023/10/30 06:39:58;;;;;;;9.13;2.05;;;10.60;99.90;;;;;;4999561;28;20064;-78
2023/10/30 06:42:24;;;;;;;11.95;2.33;;;10.60;99.90;;;;;;5013129;28;20106;-78
2023/10/30 06:44:50;;;;;;;11.32;2.35;;;10.60;99.90;;;;;;5004439;28;20551;-76
2023/10/30 06:47:15;;;;;;;11.30;2.00;;;10.60;99.90;;;;;;5105076;27;20170;-79
2023/10/30 06:49:41;;;;;;;13.00;2.60;;;10.70;99.90;;;;;;4994178;28;20042;-79
2023/10/30 06:52:07;;;;;;;10.32;2.13;;;10.60;99.90;;;;;;5014401;28;20045;-80
2023/10/30 06:54:32;;;;;;;9.48;2.50;;;10.60;99.90;;;;;;4998761;28;20034;-80
2023/10/30 06:56:58;;;;;;;12.75;3.00;;;10.60;99.90;;;;;;5000509;28;20639;-80
2023/10/30 06:59:24;;;;;;;12.23;2.33;;;10.60;99.90;;;;;;5002760;28;20034;-80
2023/10/30 07:01:50;;;;;;;11.73;2.45;;;10.60;99.90;;;;;;5003153;28;20049;-80
2023/10/30 07:04:16;;;;;;;10.80;1.98;;;10.60;99.90;;;;;;4990160;28;20430;-79
2023/10/30 07:06:43;;;;;;;8.82;2.13;;;10.60;99.90;;;;;;5002039;28;20042;-79
2023/10/30 07:09:09;;;;;;;12.27;2.20;;;10.60;99.90;;;;;;5007008;28;20084;-80
2023/10/30 07:11:36;;;;;;;12.57;2.38;;;10.70;99.90;;;;;;5001760;28;20081;-80
2023/10/30 07:14:02;;;;;;;11.20;2.17;;;10.70;99.90;;;;;;4991517;28;20065;-80
2023/10/30 07:16:35;;;;;;;11.90;2.22;;;10.70;99.90;;;;;;5011939;28;20086;-79
2023/10/30 07:19:01;;;;;;;11.65;3.00;;;10.70;99.90;;;;;;5014664;28;20044;-80
2023/10/30 07:21:28;;;;;;;12.45;3.00;;;10.80;99.90;;;;;;4995280;28;20109;-79
2023/10/30 07:23:54;;;;;;;13.02;2.63;;;10.80;99.90;;;;;;5011757;28;20497;-79
2023/10/30 07:26:21;;;;;;;14.13;2.70;;;10.80;99.90;;;;;;5020667;28;20037;-80
2023/10/30 07:28:48;;;;;;;13.15;2.38;;;10.80;99.90;;;;;;5010485;28;20098;-80
2023/10/30 07:31:14;;;;;;;12.55;2.85;;;10.80;99.90;;;;;;4994605;28;20050;-80
2023/10/30 07:33:40;;;;;;;12.32;2.97;;;10.90;99.90;;;;;;4993379;28;20052;-80
2023/10/30 07:36:06;;;;;;;13.70;3.13;;;11.00;99.90;;;;;;4991259;28;20038;-80
2023/10/30 07:38:32;;;;;;;17.88;2.38;;;11.00;99.90;;;;;;5012068;28;20065;-80
2023/10/30 07:40:58;;;;;;;12.20;2.67;;;11.00;99.90;;;;;;4995482;28;20133;-76
2023/10/30 07:43:24;;;;;;;10.75;2.80;;;11.00;99.90;;;;;;5003458;28;20516;-83
2023/10/30 07:45:50;;;;;;;11.25;2.53;;;11.10;99.90;;;;;;5003843;28;20048;-82
2023/10/30 07:48:16;;;;;;;11.75;2.97;;;11.10;99.90;;;;;;5007876;28;20091;-74
2023/10/30 07:50:43;;;;;;;10.02;2.42;;;11.20;99.90;;;;;;5014227;28;20048;-79
2023/10/30 07:53:09;;;;;;;14.25;3.03;;;11.20;99.90;;;;;;5007909;28;20124;-81
2023/10/30 07:55:36;;;;;;;12.70;3.08;;;11.20;99.90;;;;;;4988400;28;20109;-80
2023/10/30 07:58:05;;;;;;;12.93;3.47;;;11.20;99.90;;;;;;4987916;28;20056;-81
2023/10/30 08:00:31;;;;;;;11.82;2.83;;;11.30;99.90;;;;;;4995521;28;20048;-81
2023/10/30 08:02:57;;;;;;;12.45;2.90;;;11.40;99.90;;;;;;4999238;28;20051;-81
2023/10/30 08:05:22;;;;;;;10.48;2.70;;;11.40;99.90;;;;;;4997077;28;20037;-82
2023/10/30 08:07:48;;;;;;;11.93;3.30;;;11.40;99.90;;;;;;4996510;28;20050;-82
2023/10/30 08:10:14;;;;;;;9.32;2.55;;;11.50;99.90;;;;;;4993715;28;20038;-81
2023/10/30 08:12:40;;;;;;;12.50;2.63;;;11.50;99.90;;;;;;4995973;28;20046;-80
2023/10/30 08:15:09;;;;;;;13.65;3.00;;;11.60;99.90;;;;;;5000403;28;20500;-79
2023/10/30 08:17:36;;;;;;;11.05;2.92;;;11.60;99.90;;;;;;5001043;28;20061;-76
2023/10/30 08:20:03;;;;;;;12.75;4.10;;;11.60;99.90;;;;;;4985163;28;20053;-78
2023/10/30 08:22:29;;;;;;;12.60;4.10;;;11.60;99.90;;;;;;5006063;28;20042;-78
2023/10/30 08:24:55;;;;;;;15.18;3.47;;;11.70;99.90;;;;;;4994994;28;21524;-78
2023/10/30 08:27:21;;;;;;;9.80;2.95;;;11.70;99.90;;;;;;4988032;28;20039;-77
2023/10/30 08:29:46;;;;;;;11.43;2.97;;;11.80;99.90;;;;;;4989386;28;20069;-80
2023/10/30 08:32:13;;;;;;;10.95;2.75;;;11.80;99.90;;;;;;5102104;27;20405;-80
2023/10/30 08:34:38;;;;;;;12.63;2.72;;;11.80;99.90;;;;;;5002266;28;20047;-82
2023/10/30 08:37:04;;;;;;;11.13;3.00;;;11.90;99.90;;;;;;4996405;28;20086;-82
2023/10/30 08:39:30;;;;;;;11.82;3.08;;;11.90;99.90;;;;;;5010468;28;20041;-81
2023/10/30 08:41:55;;;;;;;9.82;2.58;;;11.90;99.90;;;;;;5017462;28;20046;-79
2023/10/30 08:44:21;;;;;;;11.85;2.88;;;11.90;99.90;;;;;;4997660;28;20042;-81
2023/10/30 08:46:47;;;;;;;13.65;3.33;;;12.00;99.90;;;;;;4996799;28;20049;-81
2023/10/30 08:49:12;;;;;;;11.93;2.90;;;12.00;99.90;;;;;;5005371;28;20382;-81
2023/10/30 08:51:42;;;;;;;9.48;2.80;;;12.00;99.90;;;;;;5000172;28;20132;-81
2023/10/30 08:54:08;;;;;;;13.05;3.15;;;12.10;99.90;;;;;;4989328;28;20038;-81
2023/10/30 08:56:34;;;;;;;13.52;3.17;;;12.10;99.90;;;;;;5000631;28;20046;-81
2023/10/30 08:59:00;;;;;;;13.88;3.45;;;12.10;99.90;;;;;;4990561;28;20166;-79
2023/10/30 09:01:26;;;;;;;11.50;3.42;;;12.20;99.90;;;;;;5006314;28;20044;-81
2023/10/30 09:03:52;;;;;;;15.35;3.42;;;12.20;99.90;;;;;;4992769;28;20504;-81
2023/10/30 09:06:18;;;;;;;12.57;3.03;;;12.30;99.90;;;;;;4999382;28;20041;-78
2023/10/30 09:08:44;;;;;;;13.93;3.03;;;12.30;99.90;;;;;;4992256;28;20046;-80
2023/10/30 09:11:10;;;;;;;12.32;2.70;;;12.30;99.90;;;;;;5009725;28;20056;-82
2023/10/30 09:13:36;;;;;;;15.30;3.22;;;12.40;99.90;;;;;;5010202;28;20095;-77
2023/10/30 09:16:02;;;;;;;11.50;2.72;;;12.40;99.90;;;;;;4997569;28;20042;-80
2023/10/30 09:18:27;;;;;;;12.15;2.80;;;12.40;99.90;;;;;;5000096;28;20046;-77
2023/10/30 09:20:53;;;;;;;12.35;3.25;;;12.40;99.90;;;;;;5013405;28;20047;-80
2023/10/30 09:23:19;;;;;;;14.05;3.13;;;12.40;99.90;;;;;;4990147;28;20051;-81
2023/10/30 09:25:44;;;;;;;11.65;3.15;;;12.40;99.90;;;;;;5009948;28;20050;-82
2023/10/30 09:28:11;;;;;;;15.68;3.03;;;12.40;99.90;;;;;;5007618;28;20376;-82
2023/10/30 09:30:37;;;;;;;12.65;3.33;;;12.40;99.90;;;;;;5002424;28;20044;-81
2023/10/30 09:33:03;;;;;;;11.65;3.38;;;12.40;99.90;;;;;;4995258;28;20711;-82
2023/10/30 09:35:35;;;;;;;14.02;3.00;;;12.30;99.90;;;;;;5006963;28;20476;-82
2023/10/30 09:38:01;;;;;;;11.88;2.88;;;12.30;99.90;;;;;;4997979;28;20046;-80
2023/10/30 09:40:27;;;;;;;14.75;3.03;;;12.30;99.90;;;;;;4999310;28;20044;-75
2023/10/30 09:42:54;;;;;;;14.55;3.15;;;12.40;99.90;;;;;;5016089;28;20081;-81
2023/10/30 09:45:23;;;;;;;11.73;3.03;;;12.40;99.90;;;;;;5018160;28;20038;-72
2023/10/30 09:47:54;;;;;;;9.85;2.88;;;12.40;99.90;;;;;;5003241;28;20086;-73
2023/10/30 09:50:20;;;;;;;12.90;2.63;;;12.40;99.90;;;;;;4986846;28;20052;-74
2023/10/30 09:52:51;;;;;;;15.57;3.20;;;12.40;99.90;;;;;;4989420;28;20042;-75
2023/10/30 09:55:19;;;;;;;11.82;2.83;;;12.60;99.90;;;;;;5006027;28;20101;-78
2023/10/30 09:57:48;;;;;;;15.77;2.85;;;12.60;99.90;;;;;;5005090;28;20053;-78
2023/10/30 10:00:14;;;;;;;10.82;2.65;;;12.60;99.90;;;;;;5001041;28;20045;-78
2023/10/30 10:02:44;;;;;;;11.50;2.60;;;12.70;99.90;;;;;;5002407;28;20159;-78
2023/10/30 10:05:10;;;;;;;11.65;2.78;;;12.70;99.90;;;;;;4992431;28;20135;-79
2023/10/30 10:07:36;;;;;;;10.50;3.00;;;12.70;99.90;;;;;;5006047;28;20079;-80
2023/10/30 10:10:04;;;;;;;17.08;3.65;;;12.80;99.90;;;;;;5017282;28;20116;-79
2023/10/30 10:12:31;;;;;;;14.23;3.10;;;12.80;99.90;;;;;;5012928;28;20170;-80
2023/10/30 10:14:57;;;;;;;9.60;2.67;;;12.90;99.90;;;;;;5005022;28;20106;-79
2023/10/30 10:17:23;;;;;;;12.18;2.83;;;13.00;99.90;;;;;;5003911;28;20084;-77
2023/10/30 10:19:49;;;;;;;12.15;2.65;;;13.10;99.90;;;;;;5007666;28;20078;-77
2023/10/30 10:22:30;;;;;;;15.52;2.67;;;13.30;99.90;;;;;;4997176;28;20055;-78
2023/10/30 10:24:57;;;;;;;14.90;3.20;;;13.40;99.90;;;;;;4991052;28;20513;-79
2023/10/30 10:27:26;;;;;;;14.23;2.78;;;13.50;99.90;;;;;;5012592;28;20057;-79
2023/10/30 10:29:56;;;;;;;12.00;2.70;;;13.50;99.90;;;;;;5002982;28;20050;-78
2023/10/30 10:32:32;;;;;;;11.48;2.70;;;13.70;99.90;;;;;;5013184;28;20060;-75
2023/10/30 10:35:01;;;;;;;11.40;2.25;;;13.70;99.90;;;;;;5015439;28;20443;-77
2023/10/30 10:37:27;;;;;;;10.23;2.70;;;13.70;99.90;;;;;;5000042;28;20067;-76
2023/10/30 10:39:53;;;;;;;11.55;2.63;;;13.70;99.90;;;;;;5007103;28;20128;-77
2023/10/30 10:42:24;;;;;;;11.25;2.30;;;13.80;99.90;;;;;;4994002;28;20042;-77
2023/10/30 10:44:51;;;;;;;14.65;2.95;;;13.80;99.90;;;;;;4988596;28;20050;-79
2023/10/30 10:47:18;;;;;;;9.52;2.15;;;13.90;99.90;;;;;;4995997;28;20642;-79
2023/10/30 10:49:45;;;;;;;10.57;2.60;;;13.90;99.90;;;;;;5007517;28;20050;-78
2023/10/30 10:52:15;;;;;;;12.70;2.50;;;13.90;99.90;;;;;;4999744;28;20038;-83
2023/10/30 10:54:52;;;;;;;12.55;2.65;;;13.90;99.90;;;;;;5002120;28;20056;-83
2023/10/30 10:57:20;;;;;;;9.57;3.17;;;13.90;99.90;;;;;;5001562;28;20042;-82
2023/10/30 10:59:52;;;;;;;10.65;2.78;;;13.80;99.90;;;;;;4995271;28;20042;-82
2023/10/30 11:02:27;;;;;;;14.18;2.67;;;13.80;99.90;;;;;;5001129;28;20088;-81
2023/10/30 11:04:54;;;;;;;11.20;2.70;;;13.80;99.90;;;;;;5008144;28;20049;-81
2023/10/30 11:07:49;;;;;;;10.18;2.35;;;13.80;99.90;;;;;;4997297;28;20412;-82
2023/10/30 11:10:24;;;;;;;14.35;2.60;;;13.80;99.90;;;;;;5088543;27;20058;-84
2023/10/30 11:13:41;;;;;;;12.00;2.85;;;13.80;99.90;;;;;;5009083;28;20056;-81
2023/10/30 11:16:30;;;;;;;10.93;2.30;;;13.70;99.90;;;;;;5074521;28;20530;-81
2023/10/30 11:18:59;;;;;;;12.68;2.72;;;13.80;99.90;;;;;;5026875;28;20072;-81
2023/10/30 11:21:28;;;;;;;12.77;2.60;;;13.80;99.90;;;;;;4986631;28;20511;-82
2023/10/30 11:23:59;;;;;;;10.50;2.30;;;13.80;99.90;;;;;;4993236;28;20206;-82
2023/10/30 11:26:36;;;;;;;14.52;2.45;;;13.90;99.90;;;;;;5004493;28;20088;-83
2023/10/30 11:29:06;;;;;;;13.45;2.75;;;13.90;99.90;;;;;;4994818;28;20060;-82
2023/10/30 11:31:50;;;;;;;10.65;2.60;;;13.90;99.90;;;;;;5004341;28;20064;-80
2023/10/30 11:34:16;;;;;;;12.38;2.55;;;13.90;99.90;;;;;;5021122;28;20090;-83
2023/10/30 11:36:45;;;;;;;15.40;2.72;;;13.90;99.90;;;;;;5009557;28;20046;-84
2023/10/30 11:39:11;;;;;;;11.77;2.67;;;13.90;99.90;;;;;;4999574;28;20042;-80
2023/10/30 11:41:40;;;;;;;13.55;2.63;;;13.90;99.90;;;;;;4995616;28;20052;-78
2023/10/30 11:44:13;;;;;;;12.32;2.70;;;14.00;99.90;;;;;;5100249;27;20053;-77
2023/10/30 11:46:44;;;;;;;40.03;4.30;;;14.00;99.90;;;;;;5106315;27;20057;-77
2023/10/30 11:49:13;;;;;;;11.27;2.50;;;14.00;99.90;;;;;;4999780;28;20045;-68
2023/10/30 11:51:46;;;;;;;8.15;2.30;;;13.90;99.90;;;;;;5106192;27;20070;-80
2023/10/30 11:54:18;;;;;;;13.57;2.53;;;14.00;99.90;;;;;;5010787;28;20133;-77
2023/10/30 11:56:48;;;;;;;11.48;2.97;;;14.10;99.90;;;;;;5087461;28;20046;-80
2023/10/30 11:59:14;;;;;;;12.30;3.60;;;14.00;99.90;;;;;;5005563;28;20519;-78
2023/10/30 12:01:43;;;;;;;12.93;2.33;;;14.10;99.90;;;;;;5004198;28;20091;-74
2023/10/30 12:04:09;;;;;;;13.95;3.22;;;14.20;99.90;;;;;;4999886;28;20042;-75
2023/10/30 12:06:35;;;;;;;13.68;3.10;;;14.30;99.90;;;;;;4990461;28;20050;-74
2023/10/30 12:09:01;;;;;;;14.38;2.30;;;14.40;99.90;;;;;;4996578;28;20594;-75
2023/10/30 12:11:27;;;;;;;13.23;2.78;;;14.40;99.90;;;;;;5005704;28;20039;-76
2023/10/30 12:13:54;;;;;;;11.48;2.85;;;14.50;99.90;;;;;;5010014;28;20607;-78
2023/10/30 12:16:20;;;;;;;12.25;3.40;;;14.50;99.90;;;;;;5006862;28;20660;-77
2023/10/30 12:18:46;;;;;;;9.32;2.47;;;14.50;99.90;;;;;;5012751;28;20081;-77
2023/10/30 12:21:12;;;;;;;12.63;2.90;;;14.50;99.90;;;;;;4998851;28;20082;-77
2023/10/30 12:23:49;;;;;;;13.13;3.00;;;14.50;99.90;;;;;;5002290;28;20029;-77
2023/10/30 12:26:15;;;;;;;10.02;2.85;;;14.40;99.90;;;;;;4990980;28;20119;-78
2023/10/30 12:28:40;;;;;;;9.88;2.58;;;14.40;99.90;;;;;;4997180;28;20074;-76
2023/10/30 12:31:19;;;;;;;12.90;2.75;;;14.40;99.90;;;;;;4992372;28;20512;-77
2023/10/30 12:33:45;;;;;;;9.45;2.42;;;14.40;99.90;;;;;;5001634;28;20047;-79
2023/10/30 12:36:11;;;;;;;11.23;3.17;;;14.40;99.90;;;;;;4995699;28;20099;-75
2023/10/30 12:38:37;;;;;;;15.13;3.22;;;14.30;99.90;;;;;;4989267;28;20050;-77